^^
Station Historical Data
Daily Summary for January 7, 2018 Units:  Metric    English   Both
« Previous Day
Next Day »
Daily Weekly Monthly Yearly Custom
  High: Low: Average:
Temperature: -17.8 °C -20.2 °C -19 °C
Dew Point: -17.8 °C -21.3 °C -20.2 °C
Humidity: Humidity% 76% 85%
Wind Speed: 0km/h 0km/h 4km/h
Wind Gust: 0km/h - -
Wind- - WNW
Pressure: 0 hPa 33958.2 hPa -
Precipitation: 0 mm    
Historical Graphs
 
 
Tabular Data for January 7, 2018
Time Temperature Dew Point Pressure Wind Wind Speed Wind Gust Humidity Rainfall Rate (Hourly) solar Conditions
-17.8 °C -17.8 °C 0 hPa Calm     Humidity% 0 mm SoftwareType W/m2 Conditions
00:00 -19.1 °C -19.8 °C 33958.2 hPa NW 4.2 km/h 9 km/h 91% 0 mm WeatherDisplay:10.37 W/m2 RA
00:05 -19.1 °C -19.8 °C 33958.2 hPa Calm   9 km/h 91% 0 mm WeatherDisplay:10.37 W/m2 RA
00:11 -19.1 °C -19.8 °C 33971.7 hPa NNW 7.6 km/h 20.9 km/h 90% 0 mm WeatherDisplay:10.37 W/m2 FEW
00:17 -19.1 °C -19.9 °C 33971.7 hPa NNW 10.9 km/h 11.9 km/h 90% 0 mm WeatherDisplay:10.37 W/m2 FEW
00:22 -19.1 °C -19.8 °C 33981.9 hPa NW 7.7 km/h 12.9 km/h 90% 0 mm WeatherDisplay:10.37 W/m2 FEW
00:26 -19.1 °C -19.8 °C 33981.9 hPa NNW 8.9 km/h 26.9 km/h 90% 0 mm WeatherDisplay:10.37 W/m2 FEW
00:31 -19.1 °C -19.8 °C 33981.9 hPa NNW 6.8 km/h 11.9 km/h 90% 0 mm WeatherDisplay:10.37 W/m2 FEW
00:37 -19.1 °C -19.8 °C 33981.9 hPa NW 0.3 km/h 5.1 km/h 90% 0 mm WeatherDisplay:10.37 W/m2 FEW
00:42 -19.1 °C -19.9 °C 33992.1 hPa WNW 5.5 km/h 9 km/h 89% 0 mm WeatherDisplay:10.37 W/m2 FEW
00:47 -19.1 °C -19.9 °C 33992.1 hPa WNW 16.3 km/h 35.7 km/h 89% 0 mm WeatherDisplay:10.37 W/m2 FEW
00:52 -19.1 °C -20 °C 33992.1 hPa WNW 12.4 km/h 26.9 km/h 89% 0 mm WeatherDisplay:10.37 W/m2 FEW
00:57 -19.2 °C -20.1 °C 33992.1 hPa NW 6.8 km/h 12.9 km/h 89% 0 mm WeatherDisplay:10.37 W/m2 FEW
01:01 -19.2 °C -19.9 °C 33992.1 hPa WNW 12.4 km/h 23.8 km/h 90% 0 mm WeatherDisplay:10.37 W/m2 FEW
01:06 -19.2 °C -19.9 °C 34005.6 hPa WNW 12.7 km/h 20.9 km/h 90% 0 mm WeatherDisplay:10.37 W/m2 FEW
01:11 -19.2 °C -19.9 °C 34005.6 hPa NW 4.2 km/h 9 km/h 90% 0 mm WeatherDisplay:10.37 W/m2 FEW
01:17 -19.2 °C -19.9 °C 34005.6 hPa NNW 8 km/h 11.9 km/h 91% 0 mm WeatherDisplay:10.37 W/m2 FEW
01:23 -19.2 °C -19.9 °C 34015.8 hPa NW 7.6 km/h 17.9 km/h 91% 0 mm WeatherDisplay:10.37 W/m2 FEW
01:28 -19.3 °C -19.9 °C 34015.8 hPa WSW 1.8 km/h 6 km/h 91% 0 mm WeatherDisplay:10.37 W/m2 FEW
01:33 -19.3 °C -19.9 °C 34029.3 hPa NNW 11.9 km/h 23.8 km/h 91% 0 mm WeatherDisplay:10.37 W/m2 FEW
01:38 -19.3 °C -20 °C 34029.3 hPa NNW 12.7 km/h 26.9 km/h 91% 0 mm WeatherDisplay:10.37 W/m2 FEW
01:43 -19.3 °C -20 °C 34039.5 hPa NNW 8.2 km/h 23.8 km/h 91% 0 mm WeatherDisplay:10.37 W/m2 FEW
01:48 -19.3 °C -20.1 °C 34039.5 hPa WNW 10.6 km/h 11.9 km/h 90% 0 mm WeatherDisplay:10.37 W/m2 FEW
01:59 -19.3 °C -20.1 °C 34049.6 hPa NW 3.7 km/h 9 km/h 89% 0 mm WeatherDisplay:10.37 W/m2 FEW
02:05 -19.3 °C -20.1 °C 34049.6 hPa North 10.6 km/h 23.8 km/h 89% 0 mm WeatherDisplay:10.37 W/m2 FEW
02:11 -19.3 °C -20.1 °C 34049.6 hPa WNW 12.4 km/h 23.8 km/h 89% 0 mm WeatherDisplay:10.37 W/m2 FEW
02:16 -19.3 °C -20.2 °C 34063.2 hPa NNW 6.3 km/h 26.9 km/h 88% 0 mm WeatherDisplay:10.37 W/m2 FEW
02:21 -19.3 °C -20.2 °C 34063.2 hPa NW 12.7 km/h 25.9 km/h 88% 0 mm WeatherDisplay:10.37 W/m2 FEW
02:26 -19.3 °C -20.3 °C 34063.2 hPa NNW 4.3 km/h 11.9 km/h 87% 0 mm WeatherDisplay:10.37 W/m2 FEW
02:31 -19.3 °C -20.4 °C 34073.3 hPa WNW 7.2 km/h 20.9 km/h 87% 0 mm WeatherDisplay:10.37 W/m2 FEW
02:37 -19.3 °C -20.4 °C 34073.3 hPa WNW 12.2 km/h 23.8 km/h 87% 0 mm WeatherDisplay:10.37 W/m2 FEW
02:42 -19.3 °C -20.4 °C 34073.3 hPa NNW 6.9 km/h 23.8 km/h 87% 0 mm WeatherDisplay:10.37 W/m2 FEW
02:47 -19.3 °C -20.6 °C 34086.9 hPa NNW 12.9 km/h 29.8 km/h 85% 0 mm WeatherDisplay:10.37 W/m2 FEW
02:53 -19.4 °C -20.6 °C 34086.9 hPa NNW 9.7 km/h 20.9 km/h 85% 0 mm WeatherDisplay:10.37 W/m2 FEW
02:55 -19.4 °C -20.6 °C 34086.9 hPa NNW 2.1 km/h 15 km/h 85% 0 mm WeatherDisplay:10.37 W/m2 FEW
03:00 -19.4 °C -20.6 °C 34097 hPa NNW 11.6 km/h 26.9 km/h 85% 0 mm WeatherDisplay:10.37 W/m2 FEW
03:05 -19.4 °C -20.7 °C 34097 hPa NNW 6.9 km/h 31.1 km/h 84% 0 mm WeatherDisplay:10.37 W/m2 FEW
03:10 -19.5 °C -20.8 °C 34097 hPa West 8.5 km/h 18.2 km/h 84% 0 mm WeatherDisplay:10.37 W/m2 FEW
03:15 -19.5 °C -20.9 °C 34107.2 hPa NNW 2.1 km/h 20.9 km/h 83% 0 mm WeatherDisplay:10.37 W/m2 FEW
03:21 -19.6 °C -20.9 °C 34107.2 hPa NW 6 km/h 20.9 km/h 83% 0 mm WeatherDisplay:10.37 W/m2 FEW
03:31 -19.6 °C -21.1 °C 34120.7 hPa NNW 1.3 km/h 9 km/h 82% 0 mm WeatherDisplay:10.37 W/m2 FEW
03:34 -19.6 °C -21 °C 34120.7 hPa NNW 2.1 km/h 15 km/h 83% 0 mm WeatherDisplay:10.37 W/m2 FEW
03:39 -19.7 °C -21.1 °C 34120.7 hPa NNW 9 km/h 17.9 km/h 83% 0 mm WeatherDisplay:10.37 W/m2 FEW
03:44 -19.7 °C -21.1 °C 34130.9 hPa WNW 8.5 km/h 11.9 km/h 83% 0 mm WeatherDisplay:10.37 W/m2 FEW
03:49 -19.8 °C -21.1 °C 34130.9 hPa NW 15.3 km/h 26.9 km/h 83% 0 mm WeatherDisplay:10.37 W/m2 FEW
03:55 -19.8 °C -21.2 °C 34144.4 hPa WNW 5.6 km/h 20.9 km/h 83% 0 mm WeatherDisplay:10.37 W/m2 FEW
03:59 -19.8 °C -21.2 °C 34144.4 hPa NNW 8 km/h 23.8 km/h 83% 0 mm WeatherDisplay:10.37 W/m2 FEW
04:04 -19.9 °C -21.2 °C 34144.4 hPa NW 9.7 km/h 29.8 km/h 83% 0 mm WeatherDisplay:10.37 W/m2 FEW
04:09 -19.9 °C -21.3 °C 34154.6 hPa NNW 6 km/h 11.9 km/h 83% 0 mm WeatherDisplay:10.37 W/m2 FEW
04:14 -19.9 °C -21.2 °C 34154.6 hPa NNW 8.5 km/h 15 km/h 84% 0 mm WeatherDisplay:10.37 W/m2 FEW
04:19 -19.9 °C -21.3 °C 34154.6 hPa NW 1.8 km/h 15 km/h 83% 0 mm WeatherDisplay:10.37 W/m2 FEW
04:24 -20 °C -21.3 °C 34154.6 hPa NW 6.9 km/h 10.3 km/h 84% 0 mm WeatherDisplay:10.37 W/m2 FEW
04:30 -20 °C -21.3 °C 34164.7 hPa WSW 5.6 km/h 20.8 km/h 84% 0 mm WeatherDisplay:10.37 W/m2 FEW
04:35 -20 °C -21.3 °C 34164.7 hPa NW 2.3 km/h 29.8 km/h 84% 0 mm WeatherDisplay:10.37 W/m2 FEW
04:40 -20 °C -21.3 °C 34164.7 hPa WNW 3.1 km/h 6 km/h 84% 0 mm WeatherDisplay:10.37 W/m2 FEW
04:45 -20 °C -21.3 °C 34164.7 hPa NNW 5.5 km/h 20.9 km/h 84% 0 mm WeatherDisplay:10.37 W/m2 FEW
04:51 -20 °C -21.3 °C 34178.3 hPa Calm     84% 0 mm WeatherDisplay:10.37 W/m2 FEW
04:52 -20 °C -21.3 °C 34178.3 hPa NW 2.6 km/h 10.3 km/h 84% 0 mm WeatherDisplay:10.37 W/m2 FEW
04:57 -20 °C -21.3 °C 34178.3 hPa Calm     84% 0 mm WeatherDisplay:10.37 W/m2 FEW
04:59 -20.1 °C -21.3 °C 34178.3 hPa NW 4.2 km/h 9 km/h 84% 0 mm WeatherDisplay:10.37 W/m2 FEW
05:05 -20.1 °C -21.3 °C 34178.3 hPa Calm     84% 0 mm WeatherDisplay:10.37 W/m2 FEW
05:10 -20.1 °C -21.3 °C 34188.4 hPa WNW 2.6 km/h 11.9 km/h 85% 0 mm WeatherDisplay:10.37 W/m2 FEW
05:17 -20.1 °C -21.3 °C 34188.4 hPa Calm     85% 0 mm WeatherDisplay:10.37 W/m2 FEW
05:22 -20.1 °C -21.2 °C 34188.4 hPa Calm     86% 0 mm WeatherDisplay:10.37 W/m2 FEW
05:27 -20.2 °C -21.2 °C 34188.4 hPa SW 0.5 km/h 5.1 km/h 87% 0 mm WeatherDisplay:10.37 W/m2 FEW
05:33 -20.2 °C -21.2 °C 34188.4 hPa NNW 2.1 km/h 7.7 km/h 87% 0 mm WeatherDisplay:10.37 W/m2 FEW
05:38 -20.2 °C -21.2 °C 34188.4 hPa WNW 3.4 km/h 3.4 km/h 87% 0 mm WeatherDisplay:10.37 W/m2 FEW
05:44 -20.2 °C -21.2 °C 34188.4 hPa Calm   9 km/h 87% 0 mm WeatherDisplay:10.37 W/m2 FEW
05:50 -20.2 °C -21.2 °C 34198.6 hPa Calm     88% 0 mm WeatherDisplay:10.37 W/m2 FEW
05:55 -20.2 °C -21.2 °C 34198.6 hPa Calm     88% 0 mm WeatherDisplay:10.37 W/m2 FEW
06:00 -20.2 °C -21.2 °C 34198.6 hPa Calm     88% 0 mm WeatherDisplay:10.37 W/m2 FEW
06:05 -20.2 °C -21.2 °C 34212.1 hPa WNW 0.8 km/h 11.9 km/h 88% 0 mm WeatherDisplay:10.37 W/m2 FEW
06:10 -20.2 °C -21.1 °C 34212.1 hPa NW 0.3 km/h 9 km/h 89% 0 mm WeatherDisplay:10.37 W/m2 FEW
06:16 -20.2 °C -21.1 °C 34212.1 hPa Calm     89% 0 mm WeatherDisplay:10.37 W/m2 FEW
06:21 -20.2 °C -21.1 °C 34212.1 hPa NW 4.2 km/h 6 km/h 89% 0 mm WeatherDisplay:10.37 W/m2 FEW
06:27 -20.2 °C -21.1 °C 34212.1 hPa SW 0.3 km/h 6 km/h 89% 0 mm WeatherDisplay:10.37 W/m2 FEW
06:32 -20.2 °C -21 °C 34212.1 hPa SW 1 km/h 6 km/h 90% 0 mm WeatherDisplay:10.37 W/m2 FEW
06:37 -20.2 °C -21 °C 34222.3 hPa Calm     90% 0 mm WeatherDisplay:10.37 W/m2 FEW
06:42 -20.2 °C -21 °C 34222.3 hPa West 1 km/h 6 km/h 90% 0 mm WeatherDisplay:10.37 W/m2 FEW
06:47 -20.2 °C -21 °C 34222.3 hPa West 2.1 km/h 6 km/h 90% 0 mm WeatherDisplay:10.37 W/m2 FEW
06:52 -20.2 °C -20.9 °C 34222.3 hPa Calm   9 km/h 90% 0 mm WeatherDisplay:10.37 W/m2 FEW
06:58 -20.2 °C -20.9 °C 34222.3 hPa Calm   3.1 km/h 90% 0 mm WeatherDisplay:10.37 W/m2 FEW
07:03 -20.2 °C -20.9 °C 34235.8 hPa West 1.3 km/h 9 km/h 90% 0 mm WeatherDisplay:10.37 W/m2 FEW
07:08 -20.2 °C -20.9 °C 34235.8 hPa West 2.1 km/h 6 km/h 90% 0 mm WeatherDisplay:10.37 W/m2 FEW
07:13 -20.1 °C -20.9 °C 34235.8 hPa Calm   3.1 km/h 90% 0 mm WeatherDisplay:10.37 W/m2 FEW
07:18 -20.1 °C -20.9 °C 34235.8 hPa Calm     90% 0 mm WeatherDisplay:10.37 W/m2 FEW
07:23 -20.1 °C -20.9 °C 34235.8 hPa Calm   3.1 km/h 89% 0 mm WeatherDisplay:10.37 W/m2 FEW
07:28 -20 °C -20.9 °C 34235.8 hPa NNW 3.9 km/h 11.9 km/h 89% 0 mm WeatherDisplay:10.37 W/m2 FEW
07:33 -19.9 °C -20.8 °C 34235.8 hPa NW 1.3 km/h 6 km/h 89% 0 mm WeatherDisplay:10.37 W/m2 FEW
07:38 -19.9 °C -20.8 °C 34246 hPa Calm   6 km/h 89% 0 mm WeatherDisplay:10.37 W/m2 FEW
07:43 -19.9 °C -20.8 °C 34246 hPa West 0.5 km/h 9 km/h 89% 0 mm WeatherDisplay:10.37 W/m2 FEW
07:48 -19.9 °C -20.8 °C 34246 hPa South 2.3 km/h 9 km/h 89% 0 mm WeatherDisplay:10.37 W/m2 FEW
07:54 -20 °C -20.9 °C 34246 hPa WSW 0.8 km/h 6 km/h 89% 0 mm WeatherDisplay:10.37 W/m2 FEW
07:59 -20 °C -20.9 °C 34246 hPa NW 2.9 km/h 9 km/h 89% 0 mm WeatherDisplay:10.37 W/m2 FEW
08:04 -20 °C -20.9 °C 34256.2 hPa Calm   9 km/h 89% 0 mm WeatherDisplay:10.37 W/m2 FEW
08:09 -20.1 °C -20.9 °C 34256.2 hPa North 1.8 km/h 9 km/h 89% 0 mm WeatherDisplay:10.37 W/m2 FEW
08:15 -20.1 °C -20.9 °C 34256.2 hPa WSW 1 km/h 9 km/h 89% 0 mm WeatherDisplay:10.37 W/m2 FEW
08:20 -20.1 °C -20.9 °C 34256.2 hPa WSW 0.5 km/h 3.1 km/h 89% 0 mm WeatherDisplay:10.37 W/m2 FEW
08:25 -20 °C -20.9 °C 34256.2 hPa WNW 0.5 km/h 9 km/h 89% 0 mm WeatherDisplay:10.37 W/m2 FEW
08:30 -19.9 °C -20.8 °C 34256.2 hPa West 2.1 km/h 3.1 km/h 89% 0 mm WeatherDisplay:10.37 W/m2 FEW
08:36 -19.9 °C -20.8 °C 34256.2 hPa Calm     89% 0 mm WeatherDisplay:10.37 W/m2 FEW
08:42 -19.9 °C -20.8 °C 34269.7 hPa West 0.5 km/h 3.1 km/h 89% 0 mm WeatherDisplay:10.37 W/m2 FEW
08:46 -19.9 °C -20.8 °C 34269.7 hPa Calm   9 km/h 89% 0 mm WeatherDisplay:10.37 W/m2 FEW
08:51 -19.9 °C -20.8 °C 34269.7 hPa NW 0.3 km/h 23.8 km/h 89% 0 mm WeatherDisplay:10.37 W/m2 FEW
08:56 -19.9 °C -20.7 °C 34269.7 hPa Calm     89% 0 mm WeatherDisplay:10.37 W/m2 FEW
09:02 -19.9 °C -20.7 °C 34269.7 hPa WSW 1.8 km/h 6 km/h 89% 0 mm WeatherDisplay:10.37 W/m2 FEW
09:07 -19.8 °C -20.7 °C 34279.9 hPa NNW 1.3 km/h 6 km/h 89% 0 mm WeatherDisplay:10.37 W/m2 FEW
09:12 -19.8 °C -20.7 °C 34279.9 hPa West 2.9 km/h 15 km/h 89% 0 mm WeatherDisplay:10.37 W/m2 FEW
09:17 -19.7 °C -20.6 °C 34279.9 hPa Calm   6 km/h 89% 0 mm WeatherDisplay:10.37 W/m2 FEW
09:22 -19.7 °C -20.6 °C 34293.4 hPa Calm   9 km/h 89% 0 mm WeatherDisplay:10.37 W/m2 FEW
09:27 -19.7 °C -20.6 °C 34293.4 hPa WNW 6.3 km/h 20.9 km/h 89% 0 mm WeatherDisplay:10.37 W/m2 FEW
09:32 -19.7 °C -20.6 °C 34293.4 hPa NW 0.8 km/h 9 km/h 88% 0 mm WeatherDisplay:10.37 W/m2 FEW
09:37 -19.6 °C -20.6 °C 34293.4 hPa West 5.6 km/h 9 km/h 88% 0 mm WeatherDisplay:10.37 W/m2 FEW
09:42 -19.6 °C -20.6 °C 34303.6 hPa WNW 5 km/h 15 km/h 88% 0 mm WeatherDisplay:10.37 W/m2 FEW
09:47 -19.6 °C -20.6 °C 34303.6 hPa WNW 0.5 km/h 7.7 km/h 88% 0 mm WeatherDisplay:10.37 W/m2 FEW
09:52 -19.6 °C -20.6 °C 34303.6 hPa WNW 2.1 km/h 9 km/h 88% 0 mm WeatherDisplay:10.37 W/m2 FEW
09:57 -19.6 °C -20.5 °C 34303.6 hPa WSW 1.6 km/h 9 km/h 88% 0 mm WeatherDisplay:10.37 W/m2 FEW
10:02 -19.6 °C -20.5 °C 34303.6 hPa NW 2.3 km/h 11.9 km/h 88% 0 mm WeatherDisplay:10.37 W/m2 FEW
10:08 -19.6 °C -20.5 °C 34313.7 hPa West 2.9 km/h 9 km/h 88% 0 mm WeatherDisplay:10.37 W/m2 FEW
10:13 -19.6 °C -20.5 °C 34313.7 hPa WNW 0.5 km/h 29.8 km/h 88% 0 mm WeatherDisplay:10.37 W/m2 FEW
10:18 -19.5 °C -20.4 °C 34313.7 hPa WNW 5.6 km/h 15.6 km/h 88% 0 mm WeatherDisplay:10.37 W/m2 FEW
10:24 -19.5 °C -20.4 °C 34313.7 hPa Calm     88% 0 mm WeatherDisplay:10.37 W/m2 FEW
10:30 -19.4 °C -20.4 °C 34313.7 hPa NW 1.8 km/h 9 km/h 88% 0 mm WeatherDisplay:10.37 W/m2 FEW
10:35 -19.4 °C -20.3 °C 34313.7 hPa West 2.9 km/h 9 km/h 88% 0 mm WeatherDisplay:10.37 W/m2 FEW
10:40 -19.3 °C -20.4 °C 34313.7 hPa WNW 2.3 km/h 9 km/h 87% 0 mm WeatherDisplay:10.37 W/m2 FEW
10:45 -19.3 °C -20.3 °C 34327.3 hPa WNW 1.8 km/h 6 km/h 88% 0 mm WeatherDisplay:10.37 W/m2 FEW
10:50 -19.3 °C -20.3 °C 34327.3 hPa West 2.3 km/h 9 km/h 87% 0 mm WeatherDisplay:10.37 W/m2 FEW
10:55 -19.2 °C -20.3 °C 34327.3 hPa Calm   6 km/h 87% 0 mm WeatherDisplay:10.37 W/m2 FEW
11:00 -19.2 °C -20.2 °C 34337.4 hPa West 2.6 km/h 9 km/h 87% 0 mm WeatherDisplay:10.37 W/m2 FEW
11:06 -19.2 °C -20.2 °C 34337.4 hPa Calm   9 km/h 87% 0 mm WeatherDisplay:10.37 W/m2 FEW
11:11 -19.2 °C -20.1 °C 34337.4 hPa WNW 2.6 km/h 10.3 km/h 88% 0 mm WeatherDisplay:10.37 W/m2 FEW
11:16 -19.1 °C -20.2 °C 34337.4 hPa Calm   20.9 km/h 87% 0 mm WeatherDisplay:10.37 W/m2 FEW
11:22 -19.1 °C -20.2 °C 34337.4 hPa NW 2.6 km/h 7.7 km/h 87% 0 mm WeatherDisplay:10.37 W/m2 FEW
11:27 -19.1 °C -20.1 °C 34337.4 hPa WNW 2.6 km/h 9 km/h 87% 0 mm WeatherDisplay:10.37 W/m2 FEW
11:32 -19 °C -20.1 °C 34337.4 hPa West 10.9 km/h 26.9 km/h 87% 0 mm WeatherDisplay:10.37 W/m2 FEW
11:35 -19 °C -20.1 °C 34337.4 hPa NW 4.3 km/h 9 km/h 87% 0 mm WeatherDisplay:10.37 W/m2 FEW
11:40 -18.9 °C -20 °C 34337.4 hPa West 8.2 km/h 20.9 km/h 87% 0 mm WeatherDisplay:10.37 W/m2 FEW
11:45 -18.9 °C -19.9 °C 34337.4 hPa WNW 0.5 km/h 17.9 km/h 87% 0 mm WeatherDisplay:10.37 W/m2 FEW
11:50 -18.9 °C -20.1 °C 34337.4 hPa NNW 1 km/h 9 km/h 86% 0 mm WeatherDisplay:10.37 W/m2 FEW
11:56 -18.8 °C -20 °C 34337.4 hPa West 2.9 km/h 9 km/h 86% 0 mm WeatherDisplay:10.37 W/m2 FEW
12:01 -18.8 °C -19.8 °C 34337.4 hPa NW 4.3 km/h 12.9 km/h 87% 0 mm WeatherDisplay:10.37 W/m2 FEW
12:06 -18.8 °C -19.9 °C 34337.4 hPa West 5.6 km/h 9 km/h 86% 0 mm WeatherDisplay:10.37 W/m2 FEW
12:11 -18.7 °C -19.9 °C 34337.4 hPa WNW 4.2 km/h 10.3 km/h 86% 0 mm WeatherDisplay:10.37 W/m2 FEW
12:16 -18.7 °C -19.8 °C 34337.4 hPa WNW 3.9 km/h 9 km/h 86% 0 mm WeatherDisplay:10.37 W/m2 FEW
12:17 -18.7 °C -19.8 °C 34337.4 hPa WNW 1 km/h 9 km/h 86% 0 mm WeatherDisplay:10.37 W/m2 FEW
12:23 -18.7 °C -19.8 °C 34337.4 hPa WNW 0.3 km/h 9 km/h 86% 0 mm WeatherDisplay:10.37 W/m2 FEW
12:28 -18.7 °C -19.8 °C 34337.4 hPa NW 7.2 km/h 17.9 km/h 85% 0 mm WeatherDisplay:10.37 W/m2 FEW
12:33 -18.6 °C -19.8 °C 34337.4 hPa West 8.2 km/h 20.9 km/h 85% 0 mm WeatherDisplay:10.37 W/m2 FEW
12:38 -18.6 °C -19.8 °C 34337.4 hPa NW 4.2 km/h 20.9 km/h 85% 0 mm WeatherDisplay:10.37 W/m2 FEW
12:43 -18.6 °C -19.8 °C 34337.4 hPa NW 2.3 km/h 9 km/h 85% 0 mm WeatherDisplay:10.37 W/m2 FEW
12:48 -18.6 °C -19.8 °C 34327.3 hPa WNW 3.4 km/h 9 km/h 85% 0 mm WeatherDisplay:10.37 W/m2 FEW
12:53 -18.6 °C -19.8 °C 34327.3 hPa WNW 3.4 km/h 7.7 km/h 85% 0 mm WeatherDisplay:10.37 W/m2 FEW
13:03 -18.5 °C -19.8 °C 34337.4 hPa WNW 3.1 km/h 6 km/h 84% 0 mm WeatherDisplay:10.37 W/m2 FEW
13:08 -18.5 °C -19.8 °C 34337.4 hPa NW 8.5 km/h 15 km/h 84% 0 mm WeatherDisplay:10.37 W/m2 FEW
13:13 -18.5 °C -19.8 °C 34337.4 hPa West 5.5 km/h 15 km/h 84% 0 mm WeatherDisplay:10.37 W/m2 FEW
13:18 -18.4 °C -19.8 °C 34337.4 hPa SW 1.6 km/h 15 km/h 83% 0 mm WeatherDisplay:10.37 W/m2 FEW
13:23 -18.4 °C -19.8 °C 34337.4 hPa WNW 6.9 km/h 15 km/h 83% 0 mm WeatherDisplay:10.37 W/m2 FEW
13:29 -18.4 °C -19.9 °C 34337.4 hPa WSW 3.1 km/h 17.9 km/h 82% 0 mm WeatherDisplay:10.37 W/m2 FEW
13:35 -18.4 °C -19.9 °C 34337.4 hPa WNW 10.1 km/h 29.8 km/h 82% 0 mm WeatherDisplay:10.37 W/m2 FEW
13:40 -18.4 °C -19.9 °C 34337.4 hPa West 9 km/h 20.8 km/h 81% 0 mm WeatherDisplay:10.37 W/m2 FEW
13:45 -18.4 °C -19.8 °C 34337.4 hPa NW 5 km/h 15 km/h 82% 0 mm WeatherDisplay:10.37 W/m2 FEW
13:49 -18.3 °C -19.8 °C 34337.4 hPa North 5 km/h 26.9 km/h 82% 0 mm WeatherDisplay:10.37 W/m2 FEW
13:55 -18.3 °C -19.8 °C 34337.4 hPa NW 6 km/h 15 km/h 82% 0 mm WeatherDisplay:10.37 W/m2 FEW
14:01 -18.3 °C -19.8 °C 34337.4 hPa NNW 6.3 km/h 20.8 km/h 82% 0 mm WeatherDisplay:10.37 W/m2 FEW
14:07 -18.2 °C -19.7 °C 34327.3 hPa NNW 3.7 km/h 9 km/h 82% 0 mm WeatherDisplay:10.37 W/m2 FEW
14:12 -18.2 °C -19.8 °C 34327.3 hPa NNW 4.2 km/h 9 km/h 81% 0 mm WeatherDisplay:10.37 W/m2 FEW
14:18 -18.3 °C -19.8 °C 34327.3 hPa NNW 1.8 km/h 9 km/h 81% 0 mm WeatherDisplay:10.37 W/m2 FEW
14:23 -18.3 °C -19.9 °C 34327.3 hPa NNW 5 km/h 10.3 km/h 81% 0 mm WeatherDisplay:10.37 W/m2 FEW
14:27 -18.3 °C -19.9 °C 34327.3 hPa WNW 6.8 km/h 20.9 km/h 81% 0 mm WeatherDisplay:10.37 W/m2 FEW
14:32 -18.3 °C -19.8 °C 34327.3 hPa Calm   17.9 km/h 82% 0 mm WeatherDisplay:10.37 W/m2 FEW
14:37 -18.3 °C -19.9 °C 34327.3 hPa North 7.2 km/h 23.8 km/h 81% 0 mm WeatherDisplay:10.37 W/m2 FEW
14:42 -18.3 °C -19.8 °C 34313.7 hPa West 8 km/h 11.9 km/h 82% 0 mm WeatherDisplay:10.37 W/m2 FEW
14:47 -18.3 °C -19.9 °C 34313.7 hPa Calm     81% 0 mm WeatherDisplay:10.37 W/m2 FEW
14:52 -18.4 °C -19.8 °C 34313.7 hPa NW 4.2 km/h 15 km/h 82% 0 mm WeatherDisplay:10.37 W/m2 FEW
14:57 -18.4 °C -19.8 °C 34313.7 hPa WNW 1.3 km/h 9 km/h 82% 0 mm WeatherDisplay:10.37 W/m2 FEW
15:02 -18.4 °C -19.9 °C 34313.7 hPa Calm     82% 0 mm WeatherDisplay:10.37 W/m2 FEW
15:07 -18.4 °C -19.8 °C 34313.7 hPa SSE 2.3 km/h 11.9 km/h 83% 0 mm WeatherDisplay:10.37 W/m2 FEW
15:12 -18.5 °C -19.8 °C 34313.7 hPa Calm     84% 0 mm WeatherDisplay:10.37 W/m2 FEW
15:17 -18.5 °C -19.8 °C 34313.7 hPa Calm   6 km/h 84% 0 mm WeatherDisplay:10.37 W/m2 FEW
15:23 -18.6 °C -19.8 °C 34303.6 hPa Calm   2.6 km/h 84% 0 mm WeatherDisplay:10.37 W/m2 FEW
15:28 -18.6 °C -19.8 °C 34303.6 hPa Calm     85% 0 mm WeatherDisplay:10.37 W/m2 FEW
15:38 -18.6 °C -19.8 °C 34303.6 hPa WSW 3.9 km/h 9 km/h 85% 0 mm WeatherDisplay:10.37 W/m2 FEW
15:43 -18.6 °C -19.8 °C 34303.6 hPa SW 5.1 km/h 9 km/h 85% 0 mm WeatherDisplay:10.37 W/m2 FEW
15:48 -18.6 °C -19.8 °C 34293.4 hPa Calm     85% 0 mm WeatherDisplay:10.37 W/m2 FEW
15:54 -18.6 °C -19.8 °C 34303.6 hPa Calm     85% 0 mm WeatherDisplay:10.37 W/m2 FEW
15:59 -18.6 °C -19.8 °C 34293.4 hPa WNW 1.3 km/h 9 km/h 85% 0 mm WeatherDisplay:10.37 W/m2 FEW
16:04 -18.6 °C -19.8 °C 34293.4 hPa WSW 1.3 km/h 6 km/h 85% 0 mm WeatherDisplay:10.37 W/m2 FEW
16:09 -18.6 °C -19.9 °C 34293.4 hPa Calm     84% 0 mm WeatherDisplay:10.37 W/m2 FEW
16:14 -18.6 °C -19.9 °C 34293.4 hPa Calm     84% 0 mm WeatherDisplay:10.37 W/m2 FEW
16:19 -18.6 °C -20 °C 34279.9 hPa Calm   3.1 km/h 83% 0 mm WeatherDisplay:10.37 W/m2 FEW
16:22 -18.6 °C -20 °C 34279.9 hPa Calm   6 km/h 83% 0 mm WeatherDisplay:10.37 W/m2 FEW
16:28 -18.6 °C -19.9 °C 34279.9 hPa SW 2.3 km/h 23.8 km/h 84% 0 mm WeatherDisplay:10.37 W/m2 FEW
16:33 -18.6 °C -19.9 °C 34269.7 hPa Calm     84% 0 mm WeatherDisplay:10.37 W/m2 FEW
16:38 -18.6 °C -20 °C 34269.7 hPa SSE 0.5 km/h 5.1 km/h 83% 0 mm WeatherDisplay:10.37 W/m2 FEW
16:43 -18.6 °C -20 °C 34256.2 hPa Calm     83% 0 mm WeatherDisplay:10.37 W/m2 FEW
16:48 -18.6 °C -19.9 °C 34256.2 hPa Calm     84% 0 mm WeatherDisplay:10.37 W/m2 FEW
16:54 -18.6 °C -19.9 °C 34256.2 hPa WNW 1.8 km/h 9 km/h 84% 0 mm WeatherDisplay:10.37 W/m2 FEW
16:59 -18.7 °C -19.9 °C 34246 hPa SE 3.4 km/h 6 km/h 84% 0 mm WeatherDisplay:10.37 W/m2 FEW
17:05 -18.7 °C -19.9 °C 34235.8 hPa Calm     84% 0 mm WeatherDisplay:10.37 W/m2 FEW
17:08 -18.7 °C -19.9 °C 34235.8 hPa SSW 1.3 km/h 6 km/h 84% 0 mm WeatherDisplay:10.37 W/m2 FEW
17:13 -18.6 °C -19.9 °C 34235.8 hPa Calm     84% 0 mm WeatherDisplay:10.37 W/m2 FEW
17:18 -18.6 °C -20 °C 34222.3 hPa SE 0.3 km/h 5.1 km/h 83% 0 mm WeatherDisplay:10.37 W/m2 FEW
17:23 -18.6 °C -19.9 °C 34222.3 hPa Calm     84% 0 mm WeatherDisplay:10.37 W/m2 FEW
17:28 -18.6 °C -19.9 °C 34222.3 hPa NNE 3.9 km/h 6 km/h 83% 0 mm WeatherDisplay:10.37 W/m2 FEW
17:33 -18.5 °C -19.9 °C 34222.3 hPa WNW 1.6 km/h 9 km/h 82% 0 mm WeatherDisplay:10.37 W/m2 FEW
17:39 -18.4 °C -20 °C 34212.1 hPa West 6.4 km/h 15 km/h 81% 0 mm WeatherDisplay:10.37 W/m2 FEW
17:44 -18.4 °C -20.1 °C 34212.1 hPa WNW 6.3 km/h 17.9 km/h 80% 0 mm WeatherDisplay:10.37 W/m2 FEW
17:49 -18.3 °C -20.1 °C 34198.6 hPa West 2.3 km/h 9 km/h 79% 0 mm WeatherDisplay:10.37 W/m2 FEW
17:55 -18.2 °C -20.1 °C 34198.6 hPa WNW 5.1 km/h 11.9 km/h 78% 0 mm WeatherDisplay:10.37 W/m2 FEW
18:00 -18.2 °C -20.1 °C 34198.6 hPa WSW 8 km/h 23.8 km/h 77% 0 mm WeatherDisplay:10.37 W/m2 FEW
18:05 -18 °C -20.1 °C 34198.6 hPa SSW 7.7 km/h 18.2 km/h 76% 0 mm WeatherDisplay:10.37 W/m2 FEW
18:10 -18 °C -19.9 °C 34198.6 hPa West 10.6 km/h 20.9 km/h 77% 0 mm WeatherDisplay:10.37 W/m2 FEW
18:15 -18 °C -19.9 °C 34198.6 hPa WNW 1.8 km/h 10.3 km/h 78% 0 mm WeatherDisplay:10.37 W/m2 FEW
18:25 -18.1 °C -19.7 °C 34188.4 hPa NW 8 km/h 35.7 km/h 80% 0 mm WeatherDisplay:10.37 W/m2 FEW
18:31 -18.2 °C -19.6 °C 34188.4 hPa WSW 4.7 km/h 15 km/h 82% 0 mm WeatherDisplay:10.37 W/m2 FEW
18:36 -18.2 °C -19.6 °C 34188.4 hPa NNE 4.3 km/h 9 km/h 84% 0 mm WeatherDisplay:10.37 W/m2 FEW
18:42 -18.3 °C -19.5 °C 34198.6 hPa WNW 6.4 km/h 9 km/h 86% 0 mm WeatherDisplay:10.37 W/m2 FEW
18:46 -18.4 °C -19.4 °C 34188.4 hPa NNW 10.6 km/h 26.9 km/h 87% 0 mm WeatherDisplay:10.37 W/m2 FEW
18:52 -18.4 °C -19.4 °C 34188.4 hPa NE 6.9 km/h 15.6 km/h 88% 0 mm WeatherDisplay:10.37 W/m2 FEW
18:57 -18.5 °C -19.4 °C 34188.4 hPa NNW 4.3 km/h 9 km/h 89% 0 mm WeatherDisplay:10.37 W/m2 FEW
19:02 -18.6 °C -19.3 °C 34188.4 hPa West 0.3 km/h 10.3 km/h 90% 0 mm WeatherDisplay:10.37 W/m2 FEW
19:07 -18.6 °C -19.4 °C 34178.3 hPa West 7.2 km/h 11.9 km/h 90% 0 mm WeatherDisplay:10.37 W/m2 FEW
19:12 -18.6 °C -19.3 °C 34178.3 hPa NW 6.4 km/h 17.9 km/h 91% 0 mm WeatherDisplay:10.37 W/m2 FEW
19:17 -18.7 °C -19.4 °C 34178.3 hPa WSW 2.6 km/h 9 km/h 90% 0 mm WeatherDisplay:10.37 W/m2 FEW
19:22 -18.7 °C -19.4 °C 34178.3 hPa West 5.6 km/h 26.9 km/h 90% 0 mm WeatherDisplay:10.37 W/m2 FEW
19:27 -18.7 °C -19.4 °C 34178.3 hPa NW 5 km/h 20.8 km/h 90% 0 mm WeatherDisplay:10.37 W/m2 FEW
19:32 -18.7 °C -19.3 °C 34178.3 hPa NNE 2.1 km/h 11.9 km/h 91% 0 mm WeatherDisplay:10.37 W/m2 FEW
19:37 -18.6 °C -19.4 °C 34178.3 hPa NNW 3.9 km/h 15 km/h 90% 0 mm WeatherDisplay:10.37 W/m2 FEW
19:42 -18.6 °C -19.4 °C 34178.3 hPa WSW 7.6 km/h 17.9 km/h 90% 0 mm WeatherDisplay:10.37 W/m2 FEW
19:48 -18.6 °C -19.4 °C 34178.3 hPa WSW 8.2 km/h 17.9 km/h 89% 0 mm WeatherDisplay:10.37 W/m2 FEW
19:53 -18.6 °C -19.4 °C 34164.7 hPa West 1.3 km/h 17.9 km/h 89% 0 mm WeatherDisplay:10.37 W/m2 FEW
19:59 -18.6 °C -19.4 °C 34164.7 hPa NW 5.6 km/h 17.9 km/h 89% 0 mm WeatherDisplay:10.37 W/m2 FEW
20:04 -18.6 °C -19.5 °C 34164.7 hPa West 14.5 km/h 26.9 km/h 88% 0 mm WeatherDisplay:10.37 W/m2 FEW
20:09 -18.5 °C -19.5 °C 34164.7 hPa WNW 5.5 km/h 17.9 km/h 88% 0 mm WeatherDisplay:10.37 W/m2 FEW
20:19 -18.5 °C -19.6 °C 34164.7 hPa Calm   3.1 km/h 87% 0 mm WeatherDisplay:10.37 W/m2 FEW
20:24 -18.5 °C -19.6 °C 34164.7 hPa SW 8.5 km/h 15 km/h 87% 0 mm WeatherDisplay:10.37 W/m2 FEW
20:29 -18.4 °C -19.6 °C 34164.7 hPa West 6.3 km/h 11.9 km/h 86% 0 mm WeatherDisplay:10.37 W/m2 FEW
20:34 -18.4 °C -19.6 °C 34164.7 hPa NNW 6.8 km/h 11.9 km/h 86% 0 mm WeatherDisplay:10.37 W/m2 FEW
20:39 -18.4 °C -19.7 °C 34154.6 hPa Calm     85% 0 mm WeatherDisplay:10.37 W/m2 FEW
20:44 -18.4 °C -19.7 °C 34154.6 hPa West 2.1 km/h 7.7 km/h 85% 0 mm WeatherDisplay:10.37 W/m2 FEW
20:49 -18.4 °C -19.7 °C 34164.7 hPa West 2.3 km/h   84% 0 mm WeatherDisplay:10.37 W/m2 FEW
20:54 -18.4 °C -19.7 °C 34164.7 hPa ESE 1.3 km/h   84% 0 mm WeatherDisplay:10.37 W/m2 FEW
21:00 -18.4 °C -19.7 °C 34164.7 hPa West 1.6 km/h 20.9 km/h 84% 0 mm WeatherDisplay:10.37 W/m2 FEW
21:05 -18.4 °C -19.7 °C 34164.7 hPa WSW 4.2 km/h 9 km/h 84% 0 mm WeatherDisplay:10.37 W/m2 FEW
21:10 -18.4 °C -19.8 °C 34164.7 hPa NW 2.1 km/h 9 km/h 83% 0 mm WeatherDisplay:10.37 W/m2 FEW
21:15 -18.4 °C -19.8 °C 34164.7 hPa WNW 5 km/h 20.9 km/h 83% 0 mm WeatherDisplay:10.37 W/m2 FEW
21:17 -18.4 °C -19.8 °C 34164.7 hPa North 7.6 km/h 29.8 km/h 83% 0 mm WeatherDisplay:10.37 W/m2 FEW
21:24 -18.3 °C -19.7 °C 34164.7 hPa West 1.6 km/h 9 km/h 83% 0 mm WeatherDisplay:10.37 W/m2 FEW
21:29 -18.3 °C -19.7 °C 34164.7 hPa West 6.8 km/h 15 km/h 83% 0 mm WeatherDisplay:10.37 W/m2 FEW
21:35 -18.3 °C -19.7 °C 34164.7 hPa WNW 3.1 km/h 15 km/h 83% 0 mm WeatherDisplay:10.37 W/m2 FEW
21:40 -18.3 °C -19.7 °C 34164.7 hPa WSW 3.7 km/h 6 km/h 83% 0 mm WeatherDisplay:10.37 W/m2 FEW
21:46 -18.3 °C -19.7 °C 34164.7 hPa WNW 4.3 km/h 17.9 km/h 83% 0 mm WeatherDisplay:10.37 W/m2 FEW
21:51 -18.2 °C -19.7 °C 34164.7 hPa WNW 13.5 km/h 32.8 km/h 82% 0 mm WeatherDisplay:10.37 W/m2 FEW
21:56 -18.2 °C -19.7 °C 34164.7 hPa WNW 1.3 km/h 29.8 km/h 82% 0 mm WeatherDisplay:10.37 W/m2 FEW
22:02 -18.2 °C -19.7 °C 34164.7 hPa West 0.3 km/h 9 km/h 82% 0 mm WeatherDisplay:10.37 W/m2 FEW
22:07 -18.2 °C -19.7 °C 34164.7 hPa WNW 1 km/h 9 km/h 82% 0 mm WeatherDisplay:10.37 W/m2 FEW
22:08 -18.2 °C -19.7 °C 34164.7 hPa NW 2.3 km/h 9 km/h 82% 0 mm WeatherDisplay:10.37 W/m2 FEW
22:16 -18.2 °C -19.7 °C 34164.7 hPa WNW 1.8 km/h 2.6 km/h 82% 0 mm WeatherDisplay:10.37 W/m2 FEW
22:22 -18.2 °C -19.6 °C 34164.7 hPa WSW 4.3 km/h 20.9 km/h 83% 0 mm WeatherDisplay:10.37 W/m2 FEW
22:27 -18.2 °C -19.6 °C 34164.7 hPa West 7.7 km/h 9 km/h 83% 0 mm WeatherDisplay:10.37 W/m2 FEW
22:32 -18.2 °C -19.6 °C 34164.7 hPa WSW 5.5 km/h 12.9 km/h 83% 0 mm WeatherDisplay:10.37 W/m2 FEW
22:37 -18.2 °C -19.6 °C 34164.7 hPa SW 14 km/h 14 km/h 83% 0 mm WeatherDisplay:10.37 W/m2 FEW
22:42 -18.2 °C -19.6 °C 34164.7 hPa WSW 12.2 km/h 29.8 km/h 83% 0 mm WeatherDisplay:10.37 W/m2 FEW
22:48 -18.2 °C -19.6 °C 34164.7 hPa North 9.3 km/h 18.2 km/h 83% 0 mm WeatherDisplay:10.37 W/m2 FEW
22:54 -18.2 °C -19.6 °C 34178.3 hPa NW 3.7 km/h 9 km/h 83% 0 mm WeatherDisplay:10.37 W/m2 FEW
22:58 -18.2 °C -19.6 °C 34164.7 hPa SW 6.8 km/h 10.3 km/h 82% 0 mm WeatherDisplay:10.37 W/m2 FEW
23:03 -18.1 °C -19.6 °C 34164.7 hPa West 7.2 km/h 20.9 km/h 82% 0 mm WeatherDisplay:10.37 W/m2 FEW
23:08 -18.1 °C -19.6 °C 34164.7 hPa West 10.3 km/h 11.9 km/h 82% 0 mm WeatherDisplay:10.37 W/m2 FEW
23:14 -18.1 °C -19.6 °C 34164.7 hPa WNW 6.9 km/h 11.9 km/h 82% 0 mm WeatherDisplay:10.37 W/m2 FEW
23:19 -18.1 °C -19.6 °C 34164.7 hPa West 1.6 km/h 6 km/h 82% 0 mm WeatherDisplay:10.37 W/m2 FEW
23:24 -18.1 °C -19.7 °C 34164.7 hPa North 5 km/h 9 km/h 81% 0 mm WeatherDisplay:10.37 W/m2 FEW
23:29 -18.1 °C -19.6 °C 34164.7 hPa WSW 6 km/h 7.7 km/h 82% 0 mm WeatherDisplay:10.37 W/m2 FEW
23:34 -18.1 °C -19.7 °C 34164.7 hPa SW 2.3 km/h 10.3 km/h 81% 0 mm WeatherDisplay:10.37 W/m2 FEW
23:39 -18.1 °C -19.6 °C 34164.7 hPa SW 9 km/h 17.9 km/h 81% 0 mm WeatherDisplay:10.37 W/m2 FEW
23:44 -18 °C -19.7 °C 34164.7 hPa WNW 3.7 km/h 11.9 km/h 80% 0 mm WeatherDisplay:10.37 W/m2 FEW
23:49 -17.9 °C -19.7 °C 34164.7 hPa NNW 6 km/h 11.9 km/h 80% 0 mm WeatherDisplay:10.37 W/m2 FEW
23:54 -17.9 °C -19.7 °C 34154.6 hPa WSW 4.2 km/h 29.8 km/h 79% 0 mm WeatherDisplay:10.37 W/m2 FEW
Tuulensuunkaari, Veikkola, Suomi
Compliments of Weather Underground - 2.5 mb